createdAt,value
2023-05-23T00:02:29.363Z,7.90
2023-05-23T00:07:33.714Z,9.43
2023-05-23T00:12:39.695Z,12.80
2023-05-23T00:17:42.935Z,10.60
2023-05-23T00:27:51.684Z,8.25
2023-05-23T00:32:55.787Z,8.55
2023-05-23T00:37:58.320Z,11.23
2023-05-23T00:43:01.588Z,9.00
2023-05-23T00:48:04.904Z,8.05
2023-05-23T00:53:10.984Z,8.45
2023-05-23T00:58:34.657Z,8.75
2023-05-23T01:03:38.579Z,7.88
2023-05-23T01:08:43.121Z,9.98
2023-05-23T01:13:55.584Z,9.82
2023-05-23T01:19:17.243Z,9.97
2023-05-23T01:24:44.586Z,11.35
2023-05-23T01:29:49.582Z,10.20
2023-05-23T01:34:54.047Z,12.15
2023-05-23T01:39:57.803Z,11.15
2023-05-23T01:45:03.145Z,10.75
2023-05-23T01:50:08.668Z,10.30
2023-05-23T01:55:12.454Z,10.55
2023-05-23T02:00:15.886Z,10.98
2023-05-23T02:05:22.418Z,12.23
2023-05-23T02:10:35.996Z,11.63
2023-05-23T02:15:42.025Z,9.95
2023-05-23T02:21:05.844Z,8.38
2023-05-23T02:26:08.441Z,9.25
2023-05-23T02:31:14.921Z,12.38
2023-05-23T02:36:21.452Z,13.07
2023-05-23T02:41:24.557Z,12.10
2023-05-23T02:46:27.619Z,9.77
2023-05-23T02:51:30.525Z,12.10
2023-05-23T02:56:33.553Z,11.43
2023-05-23T03:01:41.933Z,11.43
2023-05-23T03:06:44.904Z,9.63
2023-05-23T03:11:47.417Z,13.75
2023-05-23T03:16:50.675Z,11.83
2023-05-23T03:21:53.406Z,12.77
2023-05-23T03:26:56.017Z,12.85
2023-05-23T03:31:59.571Z,11.40
2023-05-23T03:37:02.541Z,12.35
2023-05-23T03:42:05.569Z,12.65
2023-05-23T03:47:09.336Z,10.30
2023-05-23T03:52:15.646Z,13.52
2023-05-23T03:57:18.832Z,10.43
2023-05-23T04:02:22.207Z,10.38
2023-05-23T04:07:26.750Z,11.43
2023-05-23T04:12:33.464Z,12.88
2023-05-23T04:17:39.687Z,12.70
2023-05-23T04:22:43.474Z,11.43
2023-05-23T04:27:47.615Z,9.77
2023-05-23T04:32:50.946Z,9.48
2023-05-23T04:37:57.113Z,10.32
2023-05-23T04:43:02.368Z,10.35
2023-05-23T04:48:22.573Z,9.45
2023-05-23T04:53:25.887Z,9.73
2023-05-23T04:58:28.947Z,10.85
2023-05-23T05:03:35.403Z,9.70
2023-05-23T05:08:41.077Z,14.38
2023-05-23T05:13:45.353Z,9.35
2023-05-23T05:18:47.977Z,13.20
2023-05-23T05:23:52.673Z,13.57
2023-05-23T05:28:55.337Z,12.05
2023-05-23T05:33:59.120Z,10.30
2023-05-23T05:39:02.981Z,11.82
2023-05-23T05:44:05.887Z,15.85
2023-05-23T05:49:10.257Z,11.55
2023-05-23T05:54:13.686Z,9.35
2023-05-23T05:59:16.292Z,8.55
2023-05-23T06:04:20.038Z,11.45
2023-05-23T06:09:23.656Z,9.13
2023-05-23T06:14:26.355Z,7.15
2023-05-23T06:19:29.609Z,8.63
2023-05-23T06:24:33.115Z,11.23
2023-05-23T06:29:38.676Z,10.73
2023-05-23T06:34:41.317Z,8.88
2023-05-23T06:39:44.079Z,10.35
2023-05-23T06:44:46.700Z,12.57
2023-05-23T06:49:49.090Z,14.00
2023-05-23T06:54:51.971Z,13.90
2023-05-23T07:04:58.199Z,10.90
2023-05-23T07:10:20.223Z,12.00
2023-05-23T07:15:24.509Z,11.85
2023-05-23T07:20:36.415Z,12.70
2023-05-23T07:26:01.355Z,12.68
2023-05-23T07:31:12.211Z,11.15
2023-05-23T07:36:16.833Z,11.35
2023-05-23T07:41:19.769Z,13.70
2023-05-23T07:46:24.342Z,29.55
2023-05-23T07:51:27.084Z,13.75
2023-05-23T07:56:31.439Z,14.27
2023-05-23T08:06:51.953Z,12.15
2023-05-23T08:12:14.558Z,12.80
2023-05-23T08:17:18.160Z,11.45
2023-05-23T08:22:22.072Z,12.13
2023-05-23T08:27:25.080Z,13.43
2023-05-23T08:32:32.722Z,11.68
2023-05-23T08:37:36.259Z,14.68
2023-05-23T08:42:38.930Z,12.98
2023-05-23T08:47:48.078Z,17.77
2023-05-23T08:52:59.643Z,14.75
2023-05-23T08:58:04.181Z,15.02
2023-05-23T09:03:22.718Z,15.55
2023-05-23T09:08:38.616Z,16.92
2023-05-23T09:13:42.110Z,15.85
2023-05-23T09:18:48.301Z,14.25
2023-05-23T09:23:52.824Z,11.45
2023-05-23T09:28:58.254Z,13.20
2023-05-23T09:34:00.933Z,13.63
2023-05-23T09:39:05.820Z,12.55
2023-05-23T09:44:09.573Z,13.52
2023-05-23T09:49:18.338Z,11.45
2023-05-23T09:54:27.491Z,12.27
2023-05-23T09:59:32.221Z,13.60
2023-05-23T10:04:35.303Z,14.02
2023-05-23T10:14:44.745Z,17.83
2023-05-23T10:20:02.886Z,14.60
2023-05-23T10:25:06.854Z,12.43
2023-05-23T10:30:10.598Z,14.77
2023-05-23T10:35:24.538Z,15.38
2023-05-23T10:40:27.134Z,18.80
2023-05-23T10:45:29.991Z,18.42
2023-05-23T10:50:37.711Z,17.88
2023-05-23T10:55:40.290Z,19.65
2023-05-23T11:01:16.735Z,24.37
2023-05-23T11:06:43.577Z,18.92
2023-05-23T11:11:53.975Z,18.73
2023-05-23T11:16:56.937Z,18.58
2023-05-23T11:22:01.558Z,21.10
2023-05-23T11:27:04.616Z,17.63
2023-05-23T11:32:16.903Z,23.35
2023-05-23T11:37:21.110Z,33.80
2023-05-23T11:42:24.834Z,37.05
2023-05-23T11:47:27.394Z,29.45
2023-05-23T11:52:33.445Z,17.52
2023-05-23T11:57:40.006Z,16.48
2023-05-23T12:02:44.238Z,19.77
2023-05-23T12:07:48.658Z,17.70
2023-05-23T12:12:51.830Z,14.70
2023-05-23T12:17:56.499Z,12.23
2023-05-23T12:22:59.038Z,15.68
2023-05-23T12:28:03.977Z,14.50
2023-05-23T12:33:09.134Z,16.23
2023-05-23T12:38:16.706Z,15.05
2023-05-23T12:43:19.417Z,16.50
2023-05-23T12:48:21.929Z,16.50
2023-05-23T12:53:26.223Z,23.48
2023-05-23T12:58:31.058Z,21.80
2023-05-23T13:03:34.041Z,24.15
2023-05-23T13:08:37.912Z,25.10
2023-05-23T13:13:40.636Z,17.45
2023-05-23T13:18:43.563Z,13.70
2023-05-23T13:23:46.137Z,12.95
2023-05-23T13:28:48.706Z,15.25
2023-05-23T13:33:51.794Z,18.77
2023-05-23T13:38:54.571Z,22.75
2023-05-23T13:43:59.755Z,28.05
2023-05-23T13:49:04.180Z,21.67
2023-05-23T13:54:07.563Z,17.13
2023-05-23T13:59:10.223Z,20.63
2023-05-23T14:04:13.782Z,20.33
2023-05-23T14:09:16.372Z,21.45
2023-05-23T14:14:19.153Z,13.73
2023-05-23T14:19:21.744Z,10.90
2023-05-23T14:24:24.426Z,11.82
2023-05-23T14:29:27.146Z,12.85
2023-05-23T14:34:30.211Z,13.68
2023-05-23T14:44:35.233Z,9.80
2023-05-23T14:49:37.888Z,12.05
2023-05-23T14:54:46.929Z,10.95
2023-05-23T14:59:49.414Z,14.18
2023-05-23T15:04:52.640Z,11.05
2023-05-23T15:09:55.232Z,12.57
2023-05-23T15:15:03.638Z,16.63
2023-05-23T15:20:07.763Z,11.05
2023-05-23T15:25:10.934Z,10.13
2023-05-23T15:35:18.253Z,11.43
2023-05-23T15:40:22.210Z,13.73
2023-05-23T15:45:25.101Z,11.65
2023-05-23T15:50:27.638Z,18.02
2023-05-23T15:55:30.272Z,12.55
2023-05-23T16:00:51.266Z,14.52
2023-05-23T16:05:54.530Z,15.55
2023-05-23T16:10:57.979Z,15.15
2023-05-23T16:16:00.797Z,13.70
2023-05-23T16:21:03.460Z,14.07
2023-05-23T16:26:06.290Z,17.70
2023-05-23T16:31:09.429Z,14.05
2023-05-23T16:36:12.476Z,16.05
2023-05-23T16:41:15.123Z,12.95
2023-05-23T16:46:20.655Z,13.88
2023-05-23T16:51:24.082Z,12.90
2023-05-23T17:06:38.914Z,11.68
2023-05-23T17:16:48.247Z,14.40
2023-05-23T17:27:17.783Z,22.88
2023-05-23T17:32:23.471Z,22.13
2023-05-23T17:37:27.697Z,16.27
2023-05-23T17:42:40.699Z,13.88
2023-05-23T17:47:44.273Z,14.18
2023-05-23T17:53:03.416Z,14.80
2023-05-23T17:58:18.578Z,13.15
2023-05-23T18:03:21.838Z,13.10
2023-05-23T18:08:30.085Z,12.27
2023-05-23T18:13:33.021Z,13.02
2023-05-23T18:23:43.922Z,12.57
2023-05-23T18:28:47.890Z,13.35
2023-05-23T18:38:54.066Z,17.93
2023-05-23T18:43:57.514Z,14.15
2023-05-23T18:49:00.922Z,13.60
2023-05-23T18:54:04.072Z,15.32
2023-05-23T19:04:10.669Z,14.68
2023-05-23T19:09:14.001Z,12.70
2023-05-23T19:14:17.517Z,15.20
2023-05-23T19:19:21.072Z,16.65
2023-05-23T19:25:19.063Z,13.77
2023-05-23T19:30:20.994Z,12.45
2023-05-23T19:35:25.241Z,11.82
2023-05-23T19:40:28.932Z,20.02
2023-05-23T19:45:37.292Z,14.55
2023-05-23T19:50:43.468Z,13.73
2023-05-23T19:55:48.652Z,10.75
2023-05-23T20:00:51.957Z,7.15
2023-05-23T20:06:00.484Z,6.13
2023-05-23T20:11:03.727Z,5.50
2023-05-23T20:16:10.097Z,4.20
2023-05-23T20:21:13.998Z,3.80
2023-05-23T20:26:17.984Z,3.50
2023-05-23T20:31:23.376Z,4.05
2023-05-23T20:36:36.149Z,4.50
2023-05-23T20:41:43.955Z,4.95
2023-05-23T20:46:48.181Z,6.22
2023-05-23T20:51:54.968Z,6.40
2023-05-23T20:56:59.257Z,5.85
2023-05-23T21:02:05.372Z,6.78
2023-05-23T21:07:08.208Z,5.43
2023-05-23T21:12:13.304Z,7.07
2023-05-23T21:17:19.876Z,7.38
2023-05-23T21:22:26.318Z,6.03
2023-05-23T21:27:33.289Z,9.45
2023-05-23T21:32:41.469Z,11.23
2023-05-23T21:37:52.978Z,8.88
2023-05-23T21:42:56.404Z,12.30
2023-05-23T21:53:22.187Z,10.23
2023-05-23T21:58:25.816Z,12.60
2023-05-23T22:03:29.296Z,11.23
2023-05-23T22:08:33.413Z,12.38
2023-05-23T22:13:35.964Z,14.80
2023-05-23T22:18:51.698Z,13.27
2023-05-23T22:23:54.886Z,9.30
2023-05-23T22:28:57.607Z,7.25
2023-05-23T22:34:03.186Z,5.55
2023-05-23T22:39:06.105Z,6.38
2023-05-23T22:44:09.526Z,7.00
2023-05-23T22:49:12.076Z,6.75
2023-05-23T22:54:25.345Z,8.23
2023-05-23T22:59:31.330Z,8.30
2023-05-23T23:04:36.394Z,6.65
2023-05-23T23:09:52.861Z,5.85
2023-05-23T23:14:56.282Z,3.92
2023-05-23T23:19:59.309Z,4.82
2023-05-23T23:25:11.138Z,4.60
2023-05-23T23:30:13.881Z,3.67
2023-05-23T23:35:18.978Z,3.97
2023-05-23T23:40:21.608Z,5.80
2023-05-23T23:45:28.595Z,5.13
2023-05-23T23:50:32.401Z,6.07
2023-05-23T23:55:34.909Z,6.20
